Time;durP1;ratioP1;P1;durP2;ratioP2;P2;SDS_P1;SDS_P2;PMS_P1;PMS_P2;Temp;Humidity;BMP_temperature;BMP_pressure;BME280_temperature;BME280_humidity;BME280_pressure;Samples;Min_cycle;Max_cycle;Signal;HPM_P1;HPM_P2
2023/01/06 00:01:31;;;;;;;24.60;10.95;;;9.90;99.90;;;;;;5066408;28;20075;-83
2023/01/06 00:03:58;;;;;;;25.55;10.77;;;9.90;99.90;;;;;;5051498;28;20079;-82
2023/01/06 00:06:27;;;;;;;31.35;11.07;;;9.90;99.90;;;;;;5066012;28;20041;-85
2023/01/06 00:09:01;;;;;;;25.17;10.50;;;9.90;99.90;;;;;;5065426;28;20075;-85
2023/01/06 00:11:27;;;;;;;24.40;10.13;;;10.00;99.90;;;;;;5066766;28;20057;-85
2023/01/06 00:13:55;;;;;;;25.70;9.15;;;9.90;99.90;;;;;;5053207;28;20096;-86
2023/01/06 00:16:21;;;;;;;24.48;8.73;;;10.00;99.90;;;;;;5052071;28;20043;-85
2023/01/06 00:18:46;;;;;;;25.50;9.35;;;10.00;99.90;;;;;;5036557;28;20044;-86
2023/01/06 00:21:14;;;;;;;27.10;8.65;;;10.00;99.90;;;;;;5039270;28;20041;-86
2023/01/06 00:23:39;;;;;;;27.75;8.88;;;10.00;99.90;;;;;;5035833;28;20041;-86
2023/01/06 00:26:07;;;;;;;24.77;8.32;;;10.00;99.90;;;;;;5049700;28;20149;-85
2023/01/06 00:28:33;;;;;;;26.00;8.18;;;10.00;99.90;;;;;;5060702;28;20045;-86
2023/01/06 00:31:05;;;;;;;24.58;8.32;;;10.00;99.90;;;;;;5049153;28;20445;-86
2023/01/06 00:33:31;;;;;;;29.92;8.45;;;10.00;99.90;;;;;;5033518;28;20048;-87
2023/01/06 00:36:00;;;;;;;27.98;9.43;;;10.00;99.90;;;;;;5050572;28;20048;-87
2023/01/06 00:38:26;;;;;;;25.60;7.75;;;10.00;99.90;;;;;;5031039;28;20395;-87
2023/01/06 00:40:51;;;;;;;20.73;7.43;;;10.00;99.90;;;;;;5046459;28;20102;-86
2023/01/06 00:43:17;;;;;;;25.75;7.80;;;10.00;99.90;;;;;;5050121;28;20044;-85
2023/01/06 00:45:43;;;;;;;23.00;8.32;;;10.00;99.90;;;;;;5050485;28;20053;-87
2023/01/06 00:48:08;;;;;;;23.48;7.50;;;10.00;99.90;;;;;;5015994;28;20494;-87
2023/01/06 00:50:34;;;;;;;25.92;7.85;;;10.00;99.90;;;;;;5048844;28;20039;-87
2023/01/06 00:53:00;;;;;;;25.48;8.77;;;10.00;99.90;;;;;;5050094;28;20068;-87
2023/01/06 00:55:26;;;;;;;22.67;7.88;;;10.00;99.90;;;;;;5032379;28;20072;-87
2023/01/06 00:57:52;;;;;;;23.13;7.57;;;10.10;99.90;;;;;;5047321;28;20052;-87
2023/01/06 01:00:18;;;;;;;21.73;7.88;;;10.10;99.90;;;;;;5031044;28;20035;-87
2023/01/06 01:02:44;;;;;;;25.67;7.45;;;10.10;99.90;;;;;;5047994;28;20055;-87
2023/01/06 01:05:10;;;;;;;25.17;7.43;;;10.10;99.90;;;;;;5067646;28;20033;-87
2023/01/06 01:07:36;;;;;;;22.67;7.80;;;10.10;99.90;;;;;;5017624;28;20045;-86
2023/01/06 01:10:02;;;;;;;23.73;7.70;;;10.10;99.90;;;;;;5046657;28;20405;-87
2023/01/06 01:12:27;;;;;;;22.00;7.65;;;10.10;99.90;;;;;;5048820;28;20052;-87
2023/01/06 01:14:54;;;;;;;26.27;7.40;;;10.10;99.90;;;;;;5031646;28;20049;-87
2023/01/06 01:17:28;;;;;;;23.27;7.88;;;10.10;99.90;;;;;;5047809;28;20047;-86
2023/01/06 01:19:56;;;;;;;21.75;7.70;;;10.10;99.90;;;;;;5048820;28;20043;-87
2023/01/06 01:22:24;;;;;;;18.77;5.75;;;10.10;99.90;;;;;;5049726;28;20080;-87
2023/01/06 01:24:50;;;;;;;18.50;5.88;;;10.10;99.90;;;;;;5031888;28;20071;-87
2023/01/06 01:27:16;;;;;;;19.67;5.97;;;10.20;99.90;;;;;;5040407;28;20102;-86
2023/01/06 01:29:42;;;;;;;15.95;5.20;;;10.10;99.90;;;;;;5047112;28;20044;-87
2023/01/06 01:32:07;;;;;;;15.57;5.03;;;10.10;99.90;;;;;;5047849;28;20045;-86
2023/01/06 01:34:33;;;;;;;15.02;4.90;;;10.10;99.90;;;;;;5043538;28;20044;-86
2023/01/06 01:36:59;;;;;;;19.40;5.97;;;10.10;99.90;;;;;;5044660;28;20080;-86
2023/01/06 01:39:27;;;;;;;14.93;5.35;;;10.10;99.90;;;;;;5049151;28;20048;-87
2023/01/06 01:41:54;;;;;;;19.30;4.85;;;10.10;99.90;;;;;;5048558;28;20557;-87
2023/01/06 01:44:53;;;;;;;16.50;5.00;;;10.10;99.90;;;;;;5029595;28;20595;-87
2023/01/06 01:47:57;;;;;;;15.02;4.88;;;10.10;99.90;;;;;;5047358;28;20076;-87
2023/01/06 01:50:31;;;;;;;16.10;5.63;;;10.10;99.90;;;;;;5059868;28;20458;-86
2023/01/06 01:53:04;;;;;;;18.35;4.55;;;10.10;99.90;;;;;;5048044;28;20037;-87
2023/01/06 01:55:31;;;;;;;13.90;4.30;;;10.10;99.90;;;;;;5041907;28;20215;-87
2023/01/06 01:58:04;;;;;;;17.13;5.07;;;10.10;99.90;;;;;;5047620;28;20497;-87
2023/01/06 02:00:30;;;;;;;15.10;4.80;;;10.10;99.90;;;;;;5045457;28;20071;-87
2023/01/06 02:02:57;;;;;;;13.75;4.65;;;10.10;99.90;;;;;;5048596;28;20052;-87
2023/01/06 02:05:26;;;;;;;14.77;4.32;;;10.10;99.90;;;;;;5047311;28;20036;-87
2023/01/06 02:07:53;;;;;;;15.98;5.10;;;10.10;99.90;;;;;;5046849;28;20033;-87
2023/01/06 02:10:21;;;;;;;13.10;4.57;;;10.10;99.90;;;;;;5047833;28;20573;-87
2023/01/06 02:12:51;;;;;;;14.05;4.80;;;10.10;99.90;;;;;;5031366;28;20051;-86
2023/01/06 02:15:22;;;;;;;15.05;5.25;;;10.10;99.90;;;;;;5032671;28;20044;-86
2023/01/06 02:17:57;;;;;;;15.40;5.43;;;10.10;99.90;;;;;;5030153;28;20041;-86
2023/01/06 02:20:41;;;;;;;14.10;5.60;;;10.10;99.90;;;;;;5032091;28;20060;-86
2023/01/06 02:23:13;;;;;;;15.82;5.88;;;10.10;99.90;;;;;;5043114;28;20046;-87
2023/01/06 02:25:53;;;;;;;17.25;6.00;;;10.10;99.90;;;;;;5045979;28;20075;-86
2023/01/06 02:28:34;;;;;;;15.10;5.97;;;10.10;99.90;;;;;;5043169;28;20053;-87
2023/01/06 02:31:11;;;;;;;14.05;5.68;;;10.10;99.90;;;;;;5050039;28;20043;-86
2023/01/06 02:33:55;;;;;;;15.35;5.90;;;10.10;99.90;;;;;;5047192;28;20535;-86
2023/01/06 02:36:40;;;;;;;15.70;5.93;;;10.10;99.90;;;;;;5048516;28;20072;-86
2023/01/06 02:39:24;;;;;;;13.15;5.38;;;10.10;99.90;;;;;;5040846;28;20052;-86
2023/01/06 02:42:13;;;;;;;12.30;5.38;;;10.10;99.90;;;;;;5045189;28;20051;-86
2023/01/06 02:44:44;;;;;;;13.05;5.20;;;10.10;99.90;;;;;;5028784;28;20549;-87
2023/01/06 02:47:47;;;;;;;16.60;6.00;;;10.10;99.90;;;;;;5047212;28;20414;-87
2023/01/06 02:50:30;;;;;;;12.53;5.57;;;10.00;99.90;;;;;;5020912;28;20499;-87
2023/01/06 02:53:20;;;;;;;12.50;5.72;;;10.00;99.90;;;;;;5047222;28;20044;-87
2023/01/06 02:55:49;;;;;;;13.52;4.65;;;10.10;99.90;;;;;;5046437;28;20443;-86
2023/01/06 02:58:36;;;;;;;12.85;5.28;;;10.10;99.90;;;;;;5045080;28;20036;-87
2023/01/06 03:01:09;;;;;;;13.55;4.97;;;10.00;99.90;;;;;;5046617;28;20427;-86
2023/01/06 03:03:36;;;;;;;;;;;10.10;99.90;;;;;;5042315;28;20079;-86
2023/01/06 03:06:09;;;;;;;12.50;4.68;;;10.00;99.90;;;;;;5043788;28;20351;-87
2023/01/06 03:08:36;;;;;;;11.45;4.25;;;10.00;99.90;;;;;;5044997;28;20040;-87
2023/01/06 03:11:02;;;;;;;10.00;4.25;;;10.00;99.90;;;;;;5029819;28;20041;-87
2023/01/06 03:13:39;;;;;;;12.80;4.68;;;10.00;99.90;;;;;;5011502;28;20501;-87
2023/01/06 03:16:05;;;;;;;12.60;4.75;;;10.00;99.90;;;;;;5041187;28;20044;-87
2023/01/06 03:18:32;;;;;;;12.13;4.78;;;10.00;99.90;;;;;;5046759;28;20039;-87
2023/01/06 03:21:02;;;;;;;13.18;4.30;;;10.00;99.90;;;;;;5014043;28;20098;-86
2023/01/06 03:23:28;;;;;;;17.10;4.65;;;10.00;99.90;;;;;;5045591;28;20041;-87
2023/01/06 03:25:54;;;;;;;10.98;4.43;;;10.00;99.90;;;;;;5046545;28;20039;-87
2023/01/06 03:28:20;;;;;;;12.70;4.00;;;10.00;99.90;;;;;;5041137;28;20444;-86
2023/01/06 03:30:55;;;;;;;16.13;4.55;;;10.00;99.90;;;;;;5045291;28;20049;-88
2023/01/06 03:33:27;;;;;;;14.57;4.45;;;10.00;99.90;;;;;;5045232;28;20540;-87
2023/01/06 03:36:05;;;;;;;12.13;4.38;;;9.90;99.90;;;;;;5041976;28;20040;-87
2023/01/06 03:38:48;;;;;;;17.08;4.93;;;10.00;99.90;;;;;;5044747;28;20045;-86
2023/01/06 03:44:37;;;;;;;13.38;4.75;;;9.90;99.90;;;;;;5050733;28;20577;-88
2023/01/06 03:47:13;;;;;;;12.77;4.55;;;9.90;99.90;;;;;;5028741;28;20493;-87
2023/01/06 03:49:52;;;;;;;10.25;4.78;;;10.00;99.90;;;;;;5030900;28;20519;-87
2023/01/06 03:52:25;;;;;;;12.43;4.75;;;10.00;99.90;;;;;;5047754;28;20060;-86
2023/01/06 03:54:57;;;;;;;11.25;4.70;;;10.00;99.90;;;;;;5033563;28;20275;-87
2023/01/06 03:57:54;;;;;;;10.80;4.55;;;9.90;99.90;;;;;;5049569;28;20478;-87
2023/01/06 04:00:23;;;;;;;12.65;5.10;;;9.90;99.90;;;;;;5046117;28;20041;-86
2023/01/06 04:02:49;;;;;;;12.05;5.05;;;9.90;99.90;;;;;;5034837;28;20429;-87
2023/01/06 04:05:26;;;;;;;13.52;5.75;;;9.90;99.90;;;;;;5029937;28;20044;-86
2023/01/06 04:07:52;;;;;;;11.75;5.07;;;9.90;99.90;;;;;;5030563;28;20536;-87
2023/01/06 04:10:21;;;;;;;10.68;5.07;;;9.90;99.90;;;;;;5032082;28;20081;-87
2023/01/06 04:12:47;;;;;;;13.48;5.60;;;9.90;99.90;;;;;;5033496;28;20552;-87
2023/01/06 04:15:19;;;;;;;13.20;5.70;;;9.90;99.90;;;;;;5024691;28;20077;-87
2023/01/06 04:17:46;;;;;;;11.83;5.63;;;9.90;99.90;;;;;;5044267;28;20065;-87
2023/01/06 04:20:14;;;;;;;9.95;5.10;;;10.00;99.90;;;;;;5031000;28;20041;-87
2023/01/06 04:22:41;;;;;;;11.98;5.88;;;10.00;99.90;;;;;;5033628;28;20460;-87
2023/01/06 04:25:07;;;;;;;11.82;5.38;;;10.00;99.90;;;;;;5050768;28;20374;-88
2023/01/06 04:27:32;;;;;;;13.25;5.55;;;10.00;99.90;;;;;;5047537;28;20545;-87
2023/01/06 04:29:58;;;;;;;11.50;5.35;;;10.00;99.90;;;;;;5029222;28;20037;-86
2023/01/06 04:32:24;;;;;;;12.63;5.50;;;10.00;99.90;;;;;;5046843;28;20047;-87
2023/01/06 04:34:50;;;;;;;11.38;5.15;;;9.90;99.90;;;;;;5044881;28;20117;-87
2023/01/06 04:37:17;;;;;;;9.73;5.15;;;9.90;99.90;;;;;;5047190;28;20037;-87
2023/01/06 04:39:43;;;;;;;12.88;4.75;;;9.90;99.90;;;;;;5032468;28;20040;-86
2023/01/06 04:42:09;;;;;;;12.30;5.20;;;9.90;99.90;;;;;;5032157;28;20090;-87
2023/01/06 04:44:34;;;;;;;14.52;5.28;;;10.00;99.90;;;;;;5041690;28;20389;-88
2023/01/06 04:47:00;;;;;;;13.38;4.85;;;9.90;99.90;;;;;;5045621;28;20089;-87
2023/01/06 04:49:26;;;;;;;11.25;4.75;;;10.00;99.90;;;;;;5025828;28;20195;-87
2023/01/06 04:51:52;;;;;;;11.65;4.88;;;10.00;99.90;;;;;;5046151;28;20429;-87
2023/01/06 04:54:18;;;;;;;10.48;4.75;;;10.00;99.90;;;;;;5016329;28;20052;-88
2023/01/06 04:56:43;;;;;;;10.65;4.05;;;10.00;99.90;;;;;;5031736;28;20109;-87
2023/01/06 04:59:09;;;;;;;10.63;4.53;;;10.00;99.90;;;;;;5031818;28;20045;-87
2023/01/06 05:01:36;;;;;;;10.55;3.92;;;10.00;99.90;;;;;;5032175;28;20040;-87
2023/01/06 05:04:02;;;;;;;10.70;3.95;;;10.00;99.90;;;;;;5026004;28;20413;-88
2023/01/06 05:06:28;;;;;;;10.00;4.10;;;9.90;99.90;;;;;;5046883;28;20119;-86
2023/01/06 05:08:54;;;;;;;10.13;3.78;;;9.90;99.90;;;;;;5048383;28;20267;-87
2023/01/06 05:11:22;;;;;;;8.68;3.50;;;9.90;99.90;;;;;;5031886;28;20033;-88
2023/01/06 05:13:48;;;;;;;8.70;3.50;;;9.90;99.90;;;;;;5044179;28;20052;-86
2023/01/06 05:16:19;;;;;;;10.20;3.42;;;9.90;99.90;;;;;;5028478;28;20041;-87
2023/01/06 05:18:45;;;;;;;8.05;3.53;;;10.00;99.90;;;;;;5049657;28;20082;-87
2023/01/06 05:21:11;;;;;;;9.15;3.38;;;10.00;99.90;;;;;;5048945;28;20401;-87
2023/01/06 05:23:37;;;;;;;8.82;3.10;;;10.00;99.90;;;;;;5031034;28;20045;-86
2023/01/06 05:26:04;;;;;;;9.88;3.53;;;10.00;99.90;;;;;;5033370;28;20517;-87
2023/01/06 05:28:30;;;;;;;9.30;3.50;;;10.00;99.90;;;;;;5021910;28;20079;-87
2023/01/06 05:31:01;;;;;;;9.13;3.50;;;10.00;99.90;;;;;;5048187;28;20434;-86
2023/01/06 05:33:27;;;;;;;8.70;3.15;;;10.00;99.90;;;;;;5046147;28;20159;-87
2023/01/06 05:36:01;;;;;;;10.45;3.53;;;10.10;99.90;;;;;;5045681;28;20072;-87
2023/01/06 05:38:27;;;;;;;9.60;3.40;;;;;;;;;;5048105;28;20040;-87
2023/01/06 05:40:53;;;;;;;9.95;4.07;;;10.00;99.90;;;;;;5049093;28;20049;-87
2023/01/06 05:43:19;;;;;;;11.45;4.28;;;10.10;99.90;;;;;;5013981;28;20041;-87
2023/01/06 05:45:45;;;;;;;9.82;4.38;;;10.10;99.90;;;;;;5047224;28;20041;-87
2023/01/06 05:48:11;;;;;;;10.13;4.95;;;10.00;99.90;;;;;;5042256;28;20402;-87
2023/01/06 05:50:37;;;;;;;9.18;4.93;;;10.00;99.90;;;;;;5043153;28;20481;-87
2023/01/06 05:53:03;;;;;;;10.95;5.18;;;10.00;99.90;;;;;;5012861;28;20045;-86
2023/01/06 05:55:28;;;;;;;11.25;5.75;;;10.00;99.90;;;;;;5048053;28;20061;-88
2023/01/06 05:57:54;;;;;;;11.45;5.93;;;10.00;99.90;;;;;;5049004;28;20045;-87
2023/01/06 06:00:20;;;;;;;9.82;5.18;;;10.00;99.90;;;;;;5045204;28;20402;-87
2023/01/06 06:02:45;;;;;;;11.00;5.45;;;10.00;99.90;;;;;;5045514;28;20037;-88
2023/01/06 06:05:11;;;;;;;12.40;5.35;;;10.00;99.90;;;;;;5030731;28;20033;-87
2023/01/06 06:07:37;;;;;;;10.23;5.43;;;10.00;99.90;;;;;;5030682;28;20036;-87
2023/01/06 06:10:03;;;;;;;9.13;5.35;;;9.90;99.90;;;;;;5046422;28;20044;-87
2023/01/06 06:12:29;;;;;;;9.90;5.85;;;9.90;99.90;;;;;;5043713;28;20162;-87
2023/01/06 06:14:55;;;;;;;11.27;5.32;;;9.90;99.90;;;;;;5031078;28;20128;-87
2023/01/06 06:17:21;;;;;;;11.05;6.07;;;9.90;99.90;;;;;;5047279;28;20534;-87
2023/01/06 06:19:46;;;;;;;10.68;5.57;;;9.80;99.90;;;;;;5013349;28;20518;-86
2023/01/06 06:22:12;;;;;;;10.45;5.95;;;9.80;99.90;;;;;;5029226;28;20036;-87
2023/01/06 06:24:38;;;;;;;10.95;6.20;;;9.80;99.90;;;;;;5044487;28;20502;-86
2023/01/06 06:27:03;;;;;;;11.77;6.00;;;9.80;99.90;;;;;;5060511;28;20533;-87
2023/01/06 06:29:29;;;;;;;13.27;5.60;;;9.80;99.90;;;;;;5048970;28;20049;-86
2023/01/06 06:31:55;;;;;;;10.52;5.60;;;9.70;99.90;;;;;;5048418;28;20048;-85
2023/01/06 06:34:21;;;;;;;10.75;6.30;;;9.80;99.90;;;;;;5029136;28;20382;-87
2023/01/06 06:36:46;;;;;;;10.60;5.50;;;9.80;99.90;;;;;;5014100;28;20037;-87
2023/01/06 06:39:12;;;;;;;11.13;5.85;;;9.70;99.90;;;;;;5011132;28;20068;-87
2023/01/06 06:41:38;;;;;;;10.05;5.80;;;9.80;99.90;;;;;;5035284;28;20497;-87
2023/01/06 06:44:04;;;;;;;12.05;5.90;;;9.70;99.90;;;;;;5014565;28;20049;-87
2023/01/06 06:46:30;;;;;;;11.18;5.70;;;9.70;99.90;;;;;;5026869;28;20040;-86
2023/01/06 06:48:55;;;;;;;11.35;5.63;;;9.70;99.90;;;;;;5045989;28;20029;-86
2023/01/06 06:51:21;;;;;;;10.88;5.95;;;9.70;99.90;;;;;;5047251;28;20094;-86
2023/01/06 06:53:48;;;;;;;11.35;6.32;;;9.70;99.90;;;;;;5009852;28;20046;-87
2023/01/06 06:56:15;;;;;;;11.57;6.18;;;9.70;99.90;;;;;;5028273;28;20056;-87
2023/01/06 06:58:41;;;;;;;10.88;6.00;;;9.70;99.90;;;;;;5042999;28;20595;-87
2023/01/06 07:01:09;;;;;;;12.23;6.20;;;9.70;99.90;;;;;;5048322;28;20045;-87
2023/01/06 07:03:35;;;;;;;11.18;6.18;;;9.70;99.90;;;;;;5046062;28;20145;-86
2023/01/06 07:06:02;;;;;;;13.32;6.43;;;9.70;99.90;;;;;;5043746;28;20044;-87
2023/01/06 07:08:28;;;;;;;10.82;6.63;;;9.70;99.90;;;;;;5045011;28;20067;-86
2023/01/06 07:10:54;;;;;;;11.32;6.25;;;9.70;99.90;;;;;;5031474;28;20048;-86
2023/01/06 07:13:20;;;;;;;9.82;5.60;;;9.60;99.90;;;;;;5009433;28;20045;-86
2023/01/06 07:15:45;;;;;;;11.32;5.60;;;9.60;99.90;;;;;;5033981;28;20056;-87
2023/01/06 07:18:11;;;;;;;10.20;5.35;;;9.60;99.90;;;;;;5052037;28;20056;-87
2023/01/06 07:20:38;;;;;;;10.00;5.40;;;9.60;99.90;;;;;;5048679;28;20494;-87
2023/01/06 07:23:04;;;;;;;9.55;4.78;;;9.60;99.90;;;;;;5048167;28;20049;-86
2023/01/06 07:25:30;;;;;;;11.65;4.90;;;9.70;99.90;;;;;;5050636;28;20041;-87
2023/01/06 07:27:59;;;;;;;9.98;5.10;;;9.70;99.90;;;;;;5047646;28;20044;-87
2023/01/06 07:30:26;;;;;;;9.60;4.68;;;9.60;99.90;;;;;;5031144;28;20114;-87
2023/01/06 07:32:52;;;;;;;8.80;4.00;;;9.60;99.90;;;;;;5047411;28;20558;-87
2023/01/06 07:35:19;;;;;;;9.45;4.05;;;9.60;99.90;;;;;;5042487;28;20049;-87
2023/01/06 07:37:44;;;;;;;9.77;3.88;;;9.60;99.90;;;;;;5050972;28;20052;-87
2023/01/06 07:40:10;;;;;;;7.40;2.92;;;9.60;99.90;;;;;;5050190;28;20462;-87
2023/01/06 07:42:36;;;;;;;8.95;3.10;;;9.60;99.90;;;;;;5045616;28;20049;-84
2023/01/06 07:45:03;;;;;;;8.43;2.92;;;9.60;99.90;;;;;;5068551;28;20048;-85
2023/01/06 07:47:29;;;;;;;7.00;2.70;;;9.60;99.90;;;;;;5062951;28;20041;-86
2023/01/06 07:49:55;;;;;;;7.80;2.90;;;9.70;99.90;;;;;;5050269;28;20041;-84
2023/01/06 07:52:21;;;;;;;6.13;2.40;;;9.70;99.90;;;;;;5032655;28;20045;-83
2023/01/06 07:54:46;;;;;;;7.13;2.63;;;9.70;99.90;;;;;;5045288;28;20049;-85
2023/01/06 07:57:12;;;;;;;7.15;2.38;;;9.70;99.90;;;;;;5068873;28;20049;-83
2023/01/06 07:59:38;;;;;;;7.55;2.00;;;9.70;99.90;;;;;;5061716;28;20052;-83
2023/01/06 08:02:03;;;;;;;6.57;2.10;;;9.70;99.90;;;;;;5064872;28;20045;-85
2023/01/06 08:04:29;;;;;;;6.78;1.95;;;9.60;99.90;;;;;;5015039;28;20049;-86
2023/01/06 08:06:55;;;;;;;7.45;1.80;;;9.50;99.90;;;;;;5048681;28;20227;-88
2023/01/06 08:09:21;;;;;;;5.85;1.90;;;9.50;99.90;;;;;;5042574;28;20052;-86
2023/01/06 08:11:46;;;;;;;7.22;1.65;;;9.40;99.90;;;;;;5044722;28;20059;-86
2023/01/06 08:14:12;;;;;;;8.25;1.88;;;9.40;99.90;;;;;;5028287;28;20072;-88
2023/01/06 08:16:40;;;;;;;6.65;1.67;;;9.30;99.90;;;;;;5048079;28;20045;-86
2023/01/06 08:19:06;;;;;;;6.57;1.52;;;9.20;99.90;;;;;;5042176;28;20460;-84
2023/01/06 08:21:32;;;;;;;7.32;1.70;;;9.20;99.90;;;;;;5041479;28;20057;-85
2023/01/06 08:23:57;;;;;;;8.57;1.60;;;9.10;99.90;;;;;;5042602;28;20043;-85
2023/01/06 08:26:23;;;;;;;10.40;1.55;;;9.50;99.90;;;;;;5027644;28;20568;-85
2023/01/06 08:28:49;;;;;;;5.00;1.33;;;9.30;99.90;;;;;;5029979;28;20049;-87
2023/01/06 08:31:18;;;;;;;7.32;1.63;;;9.00;99.90;;;;;;5051018;28;20406;-86
2023/01/06 08:33:44;;;;;;;7.90;1.80;;;9.00;99.90;;;;;;5048490;28;20043;-85
2023/01/06 08:36:13;;;;;;;7.47;1.83;;;9.00;99.90;;;;;;5042295;28;20041;-86
2023/01/06 08:38:40;;;;;;;7.13;1.65;;;8.90;99.90;;;;;;5053522;28;20102;-86
2023/01/06 08:41:06;;;;;;;7.50;1.70;;;8.10;99.90;;;;;;5025291;28;20375;-85
2023/01/06 08:43:32;;;;;;;9.68;1.80;;;8.90;99.90;;;;;;5047268;28;20037;-87
2023/01/06 08:46:03;;;;;;;9.98;1.60;;;8.90;99.90;;;;;;5017081;28;20045;-85
2023/01/06 08:48:29;;;;;;;5.38;1.35;;;8.80;99.90;;;;;;5049522;28;20115;-86
2023/01/06 08:50:56;;;;;;;6.13;1.52;;;8.80;99.90;;;;;;5047518;28;20112;-86
2023/01/06 08:53:22;;;;;;;8.25;1.60;;;8.80;99.90;;;;;;5046060;28;20040;-85
2023/01/06 08:55:48;;;;;;;7.53;1.52;;;8.80;99.90;;;;;;5046969;28;20397;-85
2023/01/06 08:58:14;;;;;;;7.50;1.60;;;8.80;99.90;;;;;;5044175;28;20134;-85
2023/01/06 09:00:42;;;;;;;5.72;1.38;;;8.80;99.90;;;;;;5041550;28;20037;-86
2023/01/06 09:03:08;;;;;;;7.03;1.40;;;8.70;99.90;;;;;;5039431;28;21361;-86
2023/01/06 09:05:34;;;;;;;6.68;1.70;;;8.80;99.90;;;;;;5039404;28;20120;-87
2023/01/06 09:07:59;;;;;;;8.63;1.38;;;8.80;99.90;;;;;;5028028;28;20501;-85
2023/01/06 09:10:25;;;;;;;8.73;1.92;;;8.80;99.90;;;;;;5041357;28;20464;-86
2023/01/06 09:12:51;;;;;;;10.65;1.70;;;8.80;99.90;;;;;;5040886;28;20052;-87
2023/01/06 09:15:17;;;;;;;7.63;1.38;;;9.10;99.90;;;;;;5013302;28;20051;-86
2023/01/06 09:17:45;;;;;;;9.73;1.52;;;8.80;99.90;;;;;;5043473;28;20502;-86
2023/01/06 09:20:11;;;;;;;6.97;1.38;;;8.80;99.90;;;;;;5020871;28;20045;-87
2023/01/06 09:22:37;;;;;;;10.75;2.60;;;9.10;99.90;;;;;;5013217;28;20512;-88
2023/01/06 09:25:03;;;;;;;10.10;1.88;;;8.80;99.90;;;;;;5042208;28;20045;-88
2023/01/06 09:27:29;;;;;;;9.48;1.90;;;8.80;99.90;;;;;;5025150;28;20053;-87
2023/01/06 09:29:54;;;;;;;7.07;1.63;;;8.70;99.90;;;;;;5038734;28;20581;-88
2023/01/06 09:32:20;;;;;;;11.05;2.10;;;8.80;99.90;;;;;;5040862;28;20036;-87
2023/01/06 09:34:46;;;;;;;10.00;1.90;;;8.80;99.90;;;;;;5008884;28;20037;-88
2023/01/06 09:37:11;;;;;;;9.60;1.80;;;8.80;99.90;;;;;;5022410;28;20403;-87
2023/01/06 09:39:38;;;;;;;10.80;1.95;;;8.80;99.90;;;;;;5057999;28;20040;-87
2023/01/06 09:42:19;;;;;;;8.25;1.90;;;8.80;99.90;;;;;;5026990;28;20061;-88
2023/01/06 09:44:56;;;;;;;11.73;2.40;;;8.80;99.90;;;;;;5040489;28;20049;-90
2023/01/06 09:47:32;;;;;;;12.65;2.33;;;8.80;99.90;;;;;;5044413;28;20049;-89
2023/01/06 09:50:17;;;;;;;9.60;2.03;;;8.80;99.90;;;;;;5042923;28;20041;-89
2023/01/06 09:52:50;;;;;;;7.88;1.80;;;6.80;99.90;;;;;;5042511;28;20099;-89
2023/01/06 09:55:26;;;;;;;11.23;1.95;;;8.90;99.90;;;;;;5043563;28;20152;-89
2023/01/06 09:57:58;;;;;;;8.52;2.10;;;8.90;99.90;;;;;;5025902;28;20045;-89
2023/01/06 10:00:38;;;;;;;14.35;2.45;;;9.00;99.90;;;;;;5039953;28;20049;-90
2023/01/06 10:03:12;;;;;;;12.02;2.00;;;9.10;99.90;;;;;;5039504;28;20083;-90
2023/01/06 10:05:56;;;;;;;8.77;1.70;;;9.00;99.90;;;;;;5057723;28;20061;-89
2023/01/06 10:08:59;;;;;;;13.60;2.17;;;9.10;99.90;;;;;;5041356;28;20044;-89
2023/01/06 10:12:04;;;;;;;11.45;1.90;;;9.00;99.90;;;;;;5018974;28;20045;-89
2023/01/06 10:14:37;;;;;;;15.85;2.38;;;9.10;99.90;;;;;;5025541;28;20544;-90
2023/01/06 10:17:24;;;;;;;12.45;1.98;;;9.10;99.90;;;;;;5041768;28;20032;-89
2023/01/06 10:20:12;;;;;;;11.02;2.03;;;9.10;99.90;;;;;;5058307;28;20076;-90
2023/01/06 10:22:59;;;;;;;12.00;1.92;;;9.20;99.90;;;;;;5042558;28;20512;-91
2023/01/06 10:25:40;;;;;;;14.52;2.47;;;8.60;99.90;;;;;;5028152;28;20032;-88
2023/01/06 10:28:29;;;;;;;13.75;2.13;;;9.20;99.90;;;;;;5044626;28;20060;-95
2023/01/06 10:31:18;;;;;;;15.25;2.13;;;9.30;99.90;;;;;;5027290;28;20049;-93
2023/01/06 10:33:50;;;;;;;11.45;2.08;;;9.20;99.90;;;;;;5028039;28;20045;-95
2023/01/06 10:36:21;;;;;;;14.65;2.17;;;9.20;99.90;;;;;;5057201;28;20032;-92
2023/01/06 10:38:49;;;;;;;9.30;1.65;;;9.30;99.90;;;;;;5043208;28;20406;-92
2023/01/06 10:41:15;;;;;;;13.65;2.08;;;9.30;99.90;;;;;;5047781;28;20037;-93
2023/01/06 10:43:41;;;;;;;9.88;1.85;;;9.50;99.90;;;;;;5053587;28;20040;-93
2023/01/06 10:46:09;;;;;;;10.48;2.30;;;9.50;99.90;;;;;;5052245;28;20048;-93
2023/01/06 10:48:37;;;;;;;11.23;1.92;;;9.50;99.90;;;;;;5016616;28;20037;-93
2023/01/06 10:51:39;;;;;;;12.45;2.60;;;9.60;99.90;;;;;;5046866;28;20047;-94
2023/01/06 10:54:10;;;;;;;9.43;2.00;;;9.50;99.90;;;;;;5032190;28;20045;-92
2023/01/06 10:56:44;;;;;;;15.27;2.13;;;9.60;99.90;;;;;;5033011;28;20044;-94
2023/01/06 10:59:13;;;;;;;13.95;2.40;;;9.60;99.90;;;;;;5034949;28;20059;-93
2023/01/06 11:01:53;;;;;;;9.57;1.95;;;9.60;99.90;;;;;;5040444;28;20037;-93
2023/01/06 11:04:20;;;;;;;10.38;1.88;;;9.50;99.90;;;;;;5026860;28;20175;-94
2023/01/06 11:06:50;;;;;;;11.35;2.53;;;9.50;99.90;;;;;;5022286;28;20047;-93
2023/01/06 11:09:30;;;;;;;10.90;2.10;;;9.50;99.90;;;;;;5027876;28;20056;-94
2023/01/06 11:12:09;;;;;;;12.60;2.10;;;9.40;99.90;;;;;;5028271;28;20033;-94
2023/01/06 11:14:35;;;;;;;13.32;2.33;;;;;;;;;;5040703;28;20041;-93
2023/01/06 11:17:08;;;;;;;9.02;1.90;;;9.60;99.90;;;;;;5028665;28;20569;-94
2023/01/06 11:19:35;;;;;;;8.85;2.08;;;9.70;99.90;;;;;;5027822;28;20486;-94
2023/01/06 11:22:05;;;;;;;10.02;1.98;;;9.80;99.90;;;;;;5030090;28;20070;-93
2023/01/06 11:24:31;;;;;;;9.77;2.10;;;9.80;99.90;;;;;;5044098;28;20238;-94
2023/01/06 11:27:00;;;;;;;16.92;2.60;;;9.80;99.90;;;;;;5029486;28;20073;-92
2023/01/06 11:29:30;;;;;;;14.05;2.30;;;9.80;99.90;;;;;;5028492;28;20040;-93
2023/01/06 11:32:00;;;;;;;11.50;2.00;;;9.80;99.90;;;;;;5029490;28;20094;-94
2023/01/06 11:34:27;;;;;;;11.55;2.40;;;9.80;99.90;;;;;;5029141;28;20512;-93
2023/01/06 11:36:54;;;;;;;11.43;1.92;;;9.80;99.90;;;;;;5014695;28;20284;-93
2023/01/06 11:39:30;;;;;;;11.10;2.25;;;9.80;99.90;;;;;;5013121;28;20033;-94
2023/01/06 11:42:06;;;;;;;9.93;1.90;;;9.90;99.90;;;;;;5029743;28;20074;-94
2023/01/06 11:44:35;;;;;;;11.30;2.13;;;9.90;99.90;;;;;;5030366;28;20045;-93
2023/01/06 11:47:23;;;;;;;12.10;2.30;;;9.90;99.90;;;;;;5030624;28;20045;-93
2023/01/06 11:49:53;;;;;;;11.00;2.28;;;10.00;99.90;;;;;;5028653;28;20713;-93
2023/01/06 11:52:21;;;;;;;14.40;2.30;;;9.90;99.90;;;;;;5030833;28;20119;-94
2023/01/06 11:54:59;;;;;;;16.85;2.75;;;10.00;99.90;;;;;;5027720;28;20033;-93
2023/01/06 11:57:58;;;;;;;10.88;2.15;;;9.90;99.90;;;;;;5029178;28;20037;-93
2023/01/06 12:00:42;;;;;;;14.85;2.50;;;9.90;99.90;;;;;;5027401;28;20037;-94
2023/01/06 12:03:30;;;;;;;11.88;2.25;;;9.90;99.90;;;;;;5030373;28;20667;-92
2023/01/06 12:06:22;;;;;;;10.23;2.67;;;9.80;99.90;;;;;;5031735;28;20068;-93
2023/01/06 12:09:20;;;;;;;10.43;2.22;;;9.80;99.90;;;;;;5033552;28;20090;-93
2023/01/06 12:11:55;;;;;;;10.82;2.22;;;9.80;99.90;;;;;;5032802;28;20040;-93
2023/01/06 12:14:29;;;;;;;12.25;2.30;;;9.70;99.90;;;;;;5033154;28;20087;-94
2023/01/06 12:17:19;;;;;;;9.82;2.20;;;9.70;99.90;;;;;;5032578;28;20178;-93
2023/01/06 12:20:04;;;;;;;12.35;2.60;;;9.50;99.90;;;;;;5064964;28;20086;-94
2023/01/06 12:22:30;;;;;;;10.02;2.08;;;9.70;99.90;;;;;;5049232;28;20048;-94
2023/01/06 12:25:00;;;;;;;10.52;2.38;;;9.70;99.90;;;;;;5024572;28;20033;-93
2023/01/06 12:27:31;;;;;;;12.52;2.10;;;9.60;99.90;;;;;;5026948;28;20091;-93
2023/01/06 12:30:07;;;;;;;12.15;2.42;;;9.70;99.90;;;;;;5046195;28;20041;-93
2023/01/06 12:32:42;;;;;;;9.00;2.05;;;9.70;99.90;;;;;;5043962;28;20144;-93
2023/01/06 12:35:17;;;;;;;12.82;2.50;;;9.70;99.90;;;;;;5047683;28;20047;-92
2023/01/06 12:38:15;;;;;;;15.18;3.00;;;9.70;99.90;;;;;;5044362;28;20461;-95
2023/01/06 12:40:51;;;;;;;10.70;2.10;;;9.70;99.90;;;;;;5023071;28;20041;-93
2023/01/06 12:43:20;;;;;;;13.70;2.50;;;9.70;99.90;;;;;;5045833;28;20041;-93
2023/01/06 12:45:48;;;;;;;10.13;2.05;;;9.70;99.90;;;;;;5015279;28;20806;-92
2023/01/06 12:48:27;;;;;;;13.43;2.78;;;9.70;99.90;;;;;;5047614;28;20040;-94
2023/01/06 12:51:05;;;;;;;9.18;2.05;;;9.70;99.90;;;;;;5026848;28;20039;-93
2023/01/06 12:53:41;;;;;;;12.55;2.35;;;9.70;99.90;;;;;;5033219;28;20445;-92
2023/01/06 12:56:15;;;;;;;14.05;2.50;;;9.80;99.90;;;;;;5048012;28;20037;-93
2023/01/06 12:59:13;;;;;;;10.65;2.00;;;9.80;99.90;;;;;;5045919;28;20067;-93
2023/01/06 13:01:50;;;;;;;11.57;2.10;;;;;;;;;;5035132;28;20402;-92
2023/01/06 13:04:47;;;;;;;13.60;2.50;;;9.90;99.90;;;;;;5029734;28;20505;-93
2023/01/06 13:07:50;;;;;;;11.40;2.35;;;9.90;99.90;;;;;;5029490;28;20043;-92